createdAt,value
2018-11-20T00:00:02.765Z,1
2018-11-20T00:05:03.399Z,1
2018-11-20T00:10:03.217Z,1
2018-11-20T00:15:02.682Z,1
2018-11-20T00:20:03.198Z,1
2018-11-20T00:25:02.728Z,1
2018-11-20T00:30:03.238Z,1
2018-11-20T00:35:02.761Z,1
2018-11-20T00:40:03.323Z,1
2018-11-20T00:45:02.754Z,1
2018-11-20T00:50:03.284Z,1
2018-11-20T00:55:02.773Z,1
2018-11-20T01:00:03.228Z,1
2018-11-20T01:05:03.648Z,1
2018-11-20T01:10:03.253Z,0
2018-11-20T01:15:02.725Z,1
2018-11-20T01:20:03.200Z,0
2018-11-20T01:25:02.636Z,0
2018-11-20T01:30:03.108Z,1
2018-11-20T01:35:02.613Z,1
2018-11-20T01:40:03.236Z,0
2018-11-20T01:45:02.772Z,0
2018-11-20T01:50:03.272Z,0
2018-11-20T01:55:02.803Z,1
2018-11-20T02:00:03.242Z,1
2018-11-20T02:05:02.690Z,1
2018-11-20T02:10:03.259Z,0
2018-11-20T02:15:02.741Z,1
2018-11-20T02:20:03.302Z,1
2018-11-20T02:25:02.755Z,1
2018-11-20T02:30:03.225Z,0
2018-11-20T02:35:02.698Z,0
2018-11-20T02:40:03.221Z,0
2018-11-20T02:45:02.754Z,1
2018-11-20T02:50:03.205Z,0
2018-11-20T02:55:02.742Z,0
2018-11-20T03:00:03.193Z,0
2018-11-20T03:05:02.667Z,0
2018-11-20T03:10:03.238Z,0
2018-11-20T03:15:02.696Z,0
2018-11-20T03:20:03.203Z,0
2018-11-20T03:25:02.750Z,0
2018-11-20T03:30:03.246Z,1
2018-11-20T03:35:02.687Z,1
2018-11-20T03:40:03.215Z,1
2018-11-20T03:45:02.673Z,0
2018-11-20T03:50:03.179Z,0
2018-11-20T03:55:02.616Z,0
2018-11-20T04:00:03.535Z,1
2018-11-20T04:05:03.022Z,1
2018-11-20T04:10:02.611Z,1
2018-11-20T04:15:03.162Z,0
2018-11-20T04:20:02.629Z,0
2018-11-20T04:25:03.147Z,0
2018-11-20T04:30:02.662Z,0
2018-11-20T04:35:03.041Z,1
2018-11-20T04:40:02.650Z,1
2018-11-20T04:45:03.112Z,0
2018-11-20T04:50:02.828Z,0
2018-11-20T04:55:02.408Z,0
2018-11-20T05:00:02.922Z,0
2018-11-20T05:05:02.492Z,1
2018-11-20T05:10:03.043Z,0
2018-11-20T05:15:02.649Z,1
2018-11-20T05:20:03.204Z,1
2018-11-20T05:25:02.709Z,0
2018-11-20T05:30:03.176Z,1
2018-11-20T05:35:02.785Z,1
2018-11-20T05:40:03.295Z,0
2018-11-20T05:45:02.743Z,1
2018-11-20T05:50:03.316Z,0
2018-11-20T05:55:02.822Z,0
2018-11-20T06:00:03.253Z,0
2018-11-20T06:05:02.698Z,1
2018-11-20T06:10:03.271Z,1
2018-11-20T06:15:02.736Z,1
2018-11-20T06:20:03.255Z,1
2018-11-20T06:25:02.755Z,1
2018-11-20T06:30:03.324Z,2
2018-11-20T06:35:03.198Z,2
2018-11-20T06:40:02.639Z,3
2018-11-20T06:45:03.183Z,3
2018-11-20T06:50:02.594Z,4
2018-11-20T06:55:03.054Z,9
2018-11-20T07:00:02.555Z,14
2018-11-20T07:05:03.111Z,20
2018-11-20T07:10:02.634Z,26
2018-11-20T07:15:03.241Z,35
2018-11-20T07:20:03.279Z,45
2018-11-20T07:25:02.867Z,54
2018-11-20T07:30:03.611Z,62
2018-11-20T07:35:02.641Z,68
2018-11-20T07:40:02.901Z,84
2018-11-20T07:45:03.357Z,101
2018-11-20T07:50:02.811Z,104
2018-11-20T07:55:03.300Z,157
2018-11-20T08:00:02.771Z,182
2018-11-20T08:05:03.305Z,183
2018-11-20T08:10:02.814Z,303
2018-11-20T08:15:03.375Z,326
2018-11-20T08:20:02.818Z,337
2018-11-20T08:25:03.284Z,463
2018-11-20T08:30:03.176Z,511
2018-11-20T08:35:02.818Z,672
2018-11-20T08:40:02.803Z,486
2018-11-20T08:45:03.316Z,554
2018-11-20T08:50:02.859Z,531
2018-11-20T08:55:02.374Z,506
2018-11-20T09:00:02.850Z,482
2018-11-20T09:05:02.553Z,468
2018-11-20T09:10:03.405Z,510
2018-11-20T09:15:02.735Z,554
2018-11-20T09:20:03.258Z,591
2018-11-20T09:25:02.923Z,605
2018-11-20T09:30:02.531Z,586
2018-11-20T09:35:02.891Z,560
2018-11-20T09:40:02.532Z,658
2018-11-20T09:45:02.940Z,631
2018-11-20T09:50:02.421Z,639
2018-11-20T09:55:02.978Z,636
2018-11-20T10:00:02.422Z,722
2018-11-20T10:05:03.083Z,826
2018-11-20T10:10:02.605Z,826
2018-11-20T10:15:03.440Z,780
2018-11-20T10:20:02.489Z,700
2018-11-20T10:25:03.361Z,767
2018-11-20T10:30:02.859Z,897
2018-11-20T10:35:02.412Z,855
2018-11-20T10:40:02.923Z,797
2018-11-20T10:45:03.360Z,744
2018-11-20T10:50:02.995Z,883
2018-11-20T10:55:02.546Z,911
2018-11-20T11:00:03.099Z,1000
2018-11-20T11:05:02.849Z,1000
2018-11-20T11:10:03.232Z,1000
2018-11-20T11:15:02.660Z,995
2018-11-20T11:20:03.156Z,1000
2018-11-20T11:25:02.622Z,1000
2018-11-20T11:30:03.142Z,909
2018-11-20T11:35:02.648Z,911
2018-11-20T11:40:03.259Z,1000
2018-11-20T11:45:02.803Z,1000
2018-11-20T11:50:03.316Z,1000
2018-11-20T11:55:02.825Z,1000
2018-11-20T12:00:02.497Z,1000
2018-11-20T12:05:02.902Z,1000
2018-11-20T12:10:02.400Z,1000
2018-11-20T12:15:02.984Z,1000
2018-11-20T12:20:02.425Z,1000
2018-11-20T12:25:02.891Z,1000
2018-11-20T12:30:02.411Z,939
2018-11-20T12:35:02.962Z,1000
2018-11-20T12:40:02.706Z,736
2018-11-20T12:45:03.184Z,724
2018-11-20T12:50:02.707Z,714
2018-11-20T12:55:03.216Z,911
2018-11-20T13:00:02.581Z,1000
2018-11-20T13:05:03.250Z,1000
2018-11-20T13:10:02.761Z,937
2018-11-20T13:15:03.222Z,939
2018-11-20T13:20:05.934Z,883
2018-11-20T13:25:02.542Z,993
2018-11-20T13:30:03.011Z,1000
2018-11-20T13:35:02.452Z,855
2018-11-20T13:40:03.037Z,993
2018-11-20T13:45:02.430Z,1000
2018-11-20T13:50:02.916Z,1000
2018-11-20T13:55:03.270Z,866
2018-11-20T14:00:02.733Z,1000
2018-11-20T14:05:03.257Z,1000
2018-11-20T14:10:02.797Z,1000
2018-11-20T14:15:03.317Z,1000
2018-11-20T14:20:02.870Z,2000
2018-11-20T14:25:02.446Z,3000
2018-11-20T14:30:02.893Z,3000
2018-11-20T14:35:02.387Z,3000
2018-11-20T14:40:02.950Z,2000
2018-11-20T14:45:03.371Z,1000
2018-11-20T14:50:02.885Z,1000
2018-11-20T14:55:02.424Z,777
2018-11-20T15:00:02.896Z,563
2018-11-20T15:05:02.820Z,465
2018-11-20T15:10:02.400Z,397
2018-11-20T15:15:02.855Z,394
2018-11-20T15:20:02.359Z,397
2018-11-20T15:25:02.847Z,360
2018-11-20T15:30:03.293Z,289
2018-11-20T15:35:02.709Z,160
2018-11-20T15:40:03.251Z,55
2018-11-20T15:45:02.706Z,44
2018-11-20T15:50:03.277Z,34
2018-11-20T15:55:02.719Z,26
2018-11-20T16:00:03.301Z,17
2018-11-20T16:05:02.772Z,7
2018-11-20T16:10:02.491Z,4
2018-11-20T16:15:02.965Z,2
2018-11-20T16:20:02.386Z,1
2018-11-20T16:25:02.866Z,1
2018-11-20T16:30:03.304Z,1
2018-11-20T16:35:02.778Z,1
2018-11-20T16:40:02.394Z,1
2018-11-20T16:45:02.908Z,1
2018-11-20T16:50:02.463Z,1
2018-11-20T16:55:02.946Z,1
2018-11-20T17:00:03.374Z,1
2018-11-20T17:05:02.823Z,1
2018-11-20T17:10:03.366Z,1
2018-11-20T17:15:02.894Z,1
2018-11-20T17:20:03.446Z,1
2018-11-20T17:25:02.874Z,1
2018-11-20T17:30:03.358Z,1
2018-11-20T17:35:02.811Z,1
2018-11-20T17:40:02.364Z,1
2018-11-20T17:45:02.891Z,1
2018-11-20T17:50:02.365Z,1
2018-11-20T17:55:02.839Z,1
2018-11-20T18:00:03.361Z,1
2018-11-20T18:05:02.812Z,1
2018-11-20T18:10:02.447Z,1
2018-11-20T18:15:02.886Z,1
2018-11-20T18:20:02.379Z,1
2018-11-20T18:25:02.872Z,1
2018-11-20T18:30:03.334Z,1
2018-11-20T18:35:02.844Z,1
2018-11-20T18:40:03.362Z,1
2018-11-20T18:45:02.833Z,1
2018-11-20T18:50:03.268Z,1
2018-11-20T18:55:02.765Z,1
2018-11-20T19:00:03.209Z,1
2018-11-20T19:05:02.688Z,1
2018-11-20T19:10:03.229Z,1
2018-11-20T19:15:02.818Z,1
2018-11-20T19:20:03.364Z,1
2018-11-20T19:25:02.887Z,1
2018-11-20T19:30:03.317Z,1
2018-11-20T19:35:02.815Z,1
2018-11-20T19:40:03.397Z,1
2018-11-20T19:45:03.296Z,1
2018-11-20T19:50:02.876Z,1
2018-11-20T19:55:03.378Z,1
2018-11-20T20:00:02.785Z,1
2018-11-20T20:05:03.382Z,1
2018-11-20T20:10:02.987Z,1
2018-11-20T20:15:02.481Z,1
2018-11-20T20:20:03.058Z,1
2018-11-20T20:25:02.541Z,1
2018-11-20T20:30:03.048Z,1
2018-11-20T20:35:02.575Z,1
2018-11-20T20:40:03.209Z,1
2018-11-20T20:45:02.677Z,1
2018-11-20T20:50:03.167Z,1
2018-11-20T20:55:02.687Z,1
2018-11-20T21:00:03.073Z,1
2018-11-20T21:05:02.626Z,1
2018-11-20T21:10:03.129Z,1
2018-11-20T21:15:02.544Z,1
2018-11-20T21:20:03.004Z,1
2018-11-20T21:25:02.493Z,1
2018-11-20T21:30:02.892Z,1
2018-11-20T21:35:03.351Z,1
2018-11-20T21:40:02.836Z,1
2018-11-20T21:45:03.294Z,1
2018-11-20T21:50:02.761Z,1
2018-11-20T21:55:03.276Z,1
2018-11-20T22:00:02.698Z,1
2018-11-20T22:05:03.181Z,1
2018-11-20T22:10:02.665Z,1
2018-11-20T22:15:03.094Z,1
2018-11-20T22:20:02.605Z,1
2018-11-20T22:25:03.111Z,1
2018-11-20T22:30:02.910Z,1
2018-11-20T22:35:02.392Z,1
2018-11-20T22:40:02.898Z,1
2018-11-20T22:45:03.318Z,1
2018-11-20T22:50:02.750Z,1
2018-11-20T22:55:03.212Z,1
2018-11-20T23:00:02.616Z,1
2018-11-20T23:05:03.143Z,1
2018-11-20T23:10:02.684Z,1
2018-11-20T23:15:03.168Z,1
2018-11-20T23:20:02.599Z,1
2018-11-20T23:25:03.304Z,1
2018-11-20T23:30:02.743Z,1
2018-11-20T23:35:03.186Z,1
2018-11-20T23:40:02.634Z,1
2018-11-20T23:45:03.086Z,1
2018-11-20T23:50:02.564Z,1
2018-11-20T23:55:03.076Z,1
